UKLU/UDJ METAR and TAF weather

Enter ICAO airport designator
Station Type Date Time Source
UKLU METAR 2022/03/17 02:00 UTC NOAA

UKLU 170200Z 12002MPS 9999 NSC 03/02 Q1028 NOSIG


Station Type Date Time Source
UKLU Decoded METAR 2022/03/17 02:00 UTC NOAA

Uzhhorod, Ukraine (UKLU) 48-38-05N 022-15-53E
Mar 16, 2022 - 10:00 PM EDT / 2022.03.17 0200 UTC
Wind: from the ESE (120 degrees) at 4 MPH (4 KT):0
Visibility: greater than 7 mile(s):0
Temperature: 37 F (3 C)
Dew Point: 35 F (2 C)
Relative Humidity: 93%
Pressure (altimeter): 30.36 in. Hg (1028 hPa)
ob: UKLU 170200Z 12002MPS 9999 NSC 03/02 Q1028 NOSIG
cycle: 2

Station Type Date Time Source
UKLU TAF 2021/10/15 21:39 UTC NOAA

TAF
AMD TAF
AMD UKLU 152133Z 1421/1606 CNL

Example: see airport list